Terminal Aerodrome Forecast
Issued by NWS

Home | Current Version | Previous Version | Text Only | Print | Product List | Glossary On
Versions: 1 2 3 4 5 6 7 8 9 10 11 12 13
775
FTUS46 KSTO 241720
TAFRBL
TAF
KRBL 241720Z 2418/2518 33006KT P6SM FEW100 SCT250
     FM242200 16009KT P6SM VCSH BKN100
     FM250600 17007KT P6SM -SHRA OVC040=

USA.gov is the U.S. government's official web portal to all federal, state and local government web resources and services.